WXM80 ListenWXM80 Stop

You find our weather info also at:

UK Metoffice

WeatherCloud

Weather Underground

Northeastern Weather Network

AWEKAS

Citizen Weather Observer Program (CWOP)

HAMweather, WeatherForYou, PWS Weather


Weather Underground History page Text

Daily Summary for December 31, 2017 Units:  Metric    English   Both
« Previous Day
Next Day »
Daily Weekly Monthly Yearly Custom
  High: Low: Average:
Temperature: -5.2 °C -11.7 °C -8.6 °C
Dew Point: -8.4 °C -17.3 °C -14.6 °C
Humidity: 78 % 51 % 62 %
Wind Speed: 21.9 km/h 1.6 km/h 9.5 km/h
Wind Gust: 42.6 km/h - -
Wind:- - WNW
Pressure: 1026.3 hPa 1016.1 hPa -
Precipitation: 0 mm    
Historical Graphs
 
 
Tabular Data for December 31, 2017
Time Temperature Dew Point Pressure Wind Wind Speed Wind Gust Humidity Rainfall Rate (Hourly)
00:02 -5.2 °C -8.4 °C 1016.5 hPa West 6 km/h 22.2 km/h 78 % 0 mm
00:07 -5.3 °C -9 °C 1016.1 hPa WNW 12.6 km/h 24.1 km/h 75 % 0 mm
00:12 -5.3 °C -9.2 °C 1016.5 hPa WNW 9.5 km/h 14.8 km/h 74 % 0 mm
00:13 -5.3 °C -9.2 °C 1016.5 hPa WNW 10.8 km/h 18.5 km/h 74 % 0 mm
00:16 -5.3 °C -9.1 °C 1016.5 hPa West 8 km/h 19.3 km/h 75 % 0 mm
00:21 -5.4 °C -9.1 °C 1016.5 hPa West 9.7 km/h 20.9 km/h 75 % 0 mm
00:23 -5.4 °C -9.3 °C 1016.8 hPa NW 13.8 km/h 20.4 km/h 74 % 0 mm
00:27 -5.5 °C -9.6 °C 1016.8 hPa West 15 km/h 24.1 km/h 73 % 0 mm
00:32 -5.6 °C -9.8 °C 1016.8 hPa North 14 km/h 24.1 km/h 72 % 0 mm
00:36 -5.6 °C -9.8 °C 1016.8 hPa WNW 10 km/h 20.4 km/h 72 % 0 mm
00:39 -5.6 °C -9.7 °C 1016.8 hPa NW 15.8 km/h 29.6 km/h 73 % 0 mm
00:42 -5.7 °C -9.7 °C 1016.8 hPa West 13.7 km/h 20.4 km/h 73 % 0 mm
00:46 -5.7 °C -9.7 °C 1016.8 hPa WNW 11.6 km/h 16.7 km/h 73 % 0 mm
00:48 -5.7 °C -9.8 °C 1016.8 hPa WNW 15.4 km/h 30.6 km/h 73 % 0 mm
00:53 -5.8 °C -9.8 °C 1016.8 hPa WNW 9.5 km/h 24.1 km/h 73 % 0 mm
00:59 -5.8 °C -9.8 °C 1017.2 hPa WNW 5.6 km/h 24.1 km/h 73 % 0 mm
01:02 -5.8 °C -9.8 °C 1017.2 hPa WNW 11.7 km/h 18.5 km/h 73 % 0 mm
01:05 -5.8 °C -9.9 °C 1016.8 hPa NW 12.1 km/h 20.9 km/h 73 % 0 mm
01:08 -5.8 °C -9.9 °C 1017.2 hPa North 14.3 km/h 25.9 km/h 73 % 0 mm
01:13 -5.8 °C -10.1 °C 1017.2 hPa WNW 13 km/h 17.7 km/h 72 % 0 mm
01:16 -5.9 °C -10.1 °C 1017.2 hPa West 15.1 km/h 29.6 km/h 72 % 0 mm
01:21 -5.9 °C -10.1 °C 1016.8 hPa NW 12.2 km/h 24.1 km/h 72 % 0 mm
01:26 -5.9 °C -9.9 °C 1017.2 hPa NW 9.7 km/h 29 km/h 73 % 0 mm
01:31 -5.9 °C -10.1 °C 1016.8 hPa WNW 10.3 km/h 24.1 km/h 72 % 0 mm
01:36 -5.9 °C -9.9 °C 1017.2 hPa WNW 12.4 km/h 22.2 km/h 73 % 0 mm
01:41 -5.9 °C -10 °C 1017.2 hPa SW 7.4 km/h 19.3 km/h 73 % 0 mm
01:42 -5.9 °C -10 °C 1017.2 hPa WNW 13.8 km/h 20.4 km/h 73 % 0 mm
01:47 -5.9 °C -10.2 °C 1017.2 hPa WNW 9 km/h 24.1 km/h 72 % 0 mm
01:49 -6 °C -10.2 °C 1017.2 hPa NW 10.1 km/h 24.1 km/h 72 % 0 mm
01:52 -6 °C -10.4 °C 1017.2 hPa WNW 7.4 km/h 11.3 km/h 71 % 0 mm
01:57 -6.1 °C -10.4 °C 1017.2 hPa NW 4.8 km/h 16.7 km/h 71 % 0 mm
01:59 -6.1 °C -10.4 °C 1017.2 hPa WNW 9.2 km/h 12.9 km/h 71 % 0 mm
02:04 -6.1 °C -10.5 °C 1017.2 hPa WNW 11.3 km/h 25.9 km/h 71 % 0 mm
02:07 -6.1 °C -10.5 °C 1017.2 hPa West 12.2 km/h 22.2 km/h 71 % 0 mm
02:08 -6.1 °C -10.5 °C 1017.2 hPa WNW 10.9 km/h 18.5 km/h 71 % 0 mm
02:13 -6.1 °C -10.2 °C 1017.2 hPa West 15 km/h 22.5 km/h 73 % 0 mm
02:18 -6.2 °C -10.4 °C 1017.2 hPa NW 6.3 km/h 20.4 km/h 72 % 0 mm
02:23 -6.2 °C -10.2 °C 1017.5 hPa WNW 14.8 km/h 18.5 km/h 73 % 0 mm
02:26 -6.2 °C -10.2 °C 1017.5 hPa NW 11.1 km/h 18.5 km/h 73 % 0 mm
02:31 -6.2 °C -10.4 °C 1017.8 hPa NW 14 km/h 27.8 km/h 72 % 0 mm
02:35 -6.3 °C -10.7 °C 1017.5 hPa West 12.7 km/h 22.2 km/h 71 % 0 mm
02:37 -6.3 °C -10.7 °C 1017.8 hPa WNW 13.2 km/h 22.2 km/h 71 % 0 mm
02:42 -6.3 °C -10.7 °C 1017.8 hPa WNW 10.1 km/h 14.5 km/h 71 % 0 mm
02:47 -6.3 °C -10.6 °C 1017.8 hPa West 9 km/h 18.5 km/h 72 % 0 mm
02:49 -6.3 °C -10.7 °C 1017.8 hPa West 8.5 km/h 17.7 km/h 71 % 0 mm
02:54 -6.4 °C -10.8 °C 1018.2 hPa WNW 7.6 km/h 16.7 km/h 71 % 0 mm
02:55 -6.4 °C -10.8 °C 1018.2 hPa WNW 7.9 km/h 16.7 km/h 71 % 0 mm
02:56 -6.4 °C -10.8 °C 1018.2 hPa NW 5.3 km/h 16.1 km/h 71 % 0 mm
03:01 -6.5 °C -10.9 °C 1018.2 hPa WSW 14.5 km/h 29.6 km/h 71 % 0 mm
03:06 -6.5 °C -11.1 °C 1018.2 hPa WNW 9.8 km/h 18.5 km/h 70 % 0 mm
03:10 -6.5 °C -10.9 °C 1018.5 hPa WNW 13.4 km/h 25.7 km/h 71 % 0 mm
03:15 -6.5 °C -10.9 °C 1018.5 hPa West 9 km/h 18.5 km/h 71 % 0 mm
03:21 -6.6 °C -10.9 °C 1018.5 hPa WNW 9.7 km/h 27.4 km/h 71 % 0 mm
03:26 -6.6 °C -11.1 °C 1018.5 hPa WNW 8 km/h 17.7 km/h 70 % 0 mm
03:28 -6.6 °C -11.1 °C 1018.5 hPa NW 13.5 km/h 24.1 km/h 70 % 0 mm
03:33 -6.6 °C -10.9 °C 1018.8 hPa WNW 11.4 km/h 18.5 km/h 71 % 0 mm
03:35 -6.6 °C -10.9 °C 1018.8 hPa WNW 13.5 km/h 24.1 km/h 71 % 0 mm
03:40 -6.6 °C -11.1 °C 1018.8 hPa West 10 km/h 22.2 km/h 70 % 0 mm
03:43 -6.6 °C -11.2 °C 1018.8 hPa WSW 7.6 km/h 12.9 km/h 70 % 0 mm
03:46 -6.6 °C -11.2 °C 1018.8 hPa WNW 10.3 km/h 18.5 km/h 70 % 0 mm
03:51 -6.7 °C -11.2 °C 1018.8 hPa WNW 9.2 km/h 16.7 km/h 70 % 0 mm
03:56 -6.7 °C -11.1 °C 1019.2 hPa WNW 7.4 km/h 13 km/h 71 % 0 mm
03:58 -6.7 °C -11.1 °C 1019.2 hPa NW 10.6 km/h 18.5 km/h 71 % 0 mm
04:03 -6.7 °C -11.1 °C 1019.2 hPa NW 14.3 km/h 25.9 km/h 71 % 0 mm
04:06 -6.7 °C -11.1 °C 1019.2 hPa WNW 11.9 km/h 27.4 km/h 71 % 0 mm
04:11 -6.7 °C -11.1 °C 1019.2 hPa West 4.3 km/h 16.1 km/h 71 % 0 mm
04:12 -6.7 °C -11.1 °C 1019.5 hPa NW 12.2 km/h 16.7 km/h 71 % 0 mm
04:15 -6.8 °C -11.2 °C 1019.2 hPa West 12.1 km/h 25.9 km/h 71 % 0 mm
04:20 -6.8 °C -11 °C 1019.5 hPa NW 15.1 km/h 27.8 km/h 72 % 0 mm
04:25 -6.8 °C -11 °C 1019.5 hPa West 14.8 km/h 33.3 km/h 72 % 0 mm
04:30 -6.8 °C -11.2 °C 1019.5 hPa West 14.5 km/h 24.1 km/h 71 % 0 mm
04:35 -6.8 °C -11.1 °C 1019.2 hPa NW 10.8 km/h 24.1 km/h 72 % 0 mm
04:36 -6.8 °C -11.1 °C 1019.5 hPa WNW 10.5 km/h 22.5 km/h 72 % 0 mm
04:38 -6.9 °C -11.1 °C 1019.5 hPa NNW 10.5 km/h 18.5 km/h 72 % 0 mm
04:43 -6.9 °C -11.2 °C 1019.9 hPa NNW 9.8 km/h 20.4 km/h 72 % 0 mm
04:48 -6.9 °C -10.9 °C 1019.9 hPa North 15.1 km/h 24.1 km/h 73 % 0 mm
04:53 -6.9 °C -11.2 °C 1019.9 hPa WNW 7.1 km/h 20.4 km/h 72 % 0 mm
04:57 -6.9 °C -11.2 °C 1019.9 hPa WNW 9 km/h 22.2 km/h 72 % 0 mm
05:02 -6.9 °C -11.2 °C 1019.9 hPa WNW 14.5 km/h 24.1 km/h 72 % 0 mm
05:04 -6.9 °C -11.3 °C 1019.9 hPa WNW 11.6 km/h 22.2 km/h 71 % 0 mm
05:09 -6.9 °C -11.3 °C 1020.2 hPa NW 17.2 km/h 33.3 km/h 71 % 0 mm
05:15 -7 °C -11.4 °C 1020.5 hPa WSW 14.5 km/h 35.2 km/h 71 % 0 mm
05:18 -7 °C -11.4 °C 1020.2 hPa WNW 14.6 km/h 24.1 km/h 71 % 0 mm
05:20 -7.1 °C -11.6 °C 1020.2 hPa NW 11.9 km/h 29 km/h 70 % 0 mm
05:26 -7.1 °C -11.8 °C 1020.5 hPa WNW 16.1 km/h 32.2 km/h 69 % 0 mm
05:31 -7.2 °C -11.9 °C 1020.5 hPa NW 16.1 km/h 32.2 km/h 69 % 0 mm
05:32 -7.2 °C -11.9 °C 1020.5 hPa NW 15.1 km/h 25.9 km/h 69 % 0 mm
05:37 -7.2 °C -11.8 °C 1020.5 hPa WNW 14.2 km/h 20.4 km/h 70 % 0 mm
05:38 -7.2 °C -11.8 °C 1020.5 hPa WSW 10.6 km/h 25.9 km/h 70 % 0 mm
05:41 -7.2 °C -11.9 °C 1020.5 hPa NW 11.3 km/h 32.2 km/h 69 % 0 mm
05:46 -7.3 °C -12.2 °C 1020.9 hPa NW 21.9 km/h 35.2 km/h 68 % 0 mm
05:50 -7.3 °C -12.2 °C 1020.5 hPa NNE 16.9 km/h 42.6 km/h 68 % 0 mm
05:55 -7.4 °C -12.3 °C 1020.9 hPa NW 13.2 km/h 27.8 km/h 68 % 0 mm
05:57 -7.4 °C -12.3 °C 1020.9 hPa West 11.9 km/h 18.5 km/h 68 % 0 mm
06:00 -7.5 °C -12.4 °C 1021.2 hPa NW 12.9 km/h 24.1 km/h 68 % 0 mm
06:03 -7.6 °C -12.4 °C 1021.2 hPa NW 16.1 km/h 20.9 km/h 68 % 0 mm
06:08 -7.7 °C -12.9 °C 1021.2 hPa WNW 12.9 km/h 14.8 km/h 66 % 0 mm
06:12 -7.7 °C -13.2 °C 1021.6 hPa NW 16.7 km/h 40.7 km/h 65 % 0 mm
06:14 -7.8 °C -12.8 °C 1021.6 hPa WNW 14.2 km/h 22.2 km/h 67 % 0 mm
06:17 -7.8 °C -12.7 °C 1021.9 hPa NW 12.9 km/h 18.5 km/h 68 % 0 mm
06:22 -7.8 °C -12.9 °C 1021.6 hPa WNW 16.3 km/h 30.6 km/h 67 % 0 mm
06:26 -7.8 °C -13.1 °C 1022.2 hPa WNW 12.9 km/h 32.2 km/h 66 % 0 mm
06:31 -7.9 °C -13.3 °C 1021.9 hPa WNW 9.7 km/h 29 km/h 65 % 0 mm
06:36 -7.9 °C -13.4 °C 1021.9 hPa WNW 9.7 km/h 20.9 km/h 65 % 0 mm
06:41 -8 °C -13.4 °C 1022.2 hPa West 8.7 km/h 27.8 km/h 65 % 0 mm
06:46 -8.1 °C -13.5 °C 1021.9 hPa WSW 11.4 km/h 25.9 km/h 65 % 0 mm
06:47 -8.1 °C -13.5 °C 1022.2 hPa WNW 9.7 km/h 25.9 km/h 65 % 0 mm
06:48 -8.1 °C -13.5 °C 1022.2 hPa NW 12.9 km/h 25.9 km/h 65 % 0 mm
06:53 -8.1 °C -13.3 °C 1021.9 hPa NNW 12.9 km/h 27.8 km/h 66 % 0 mm
06:58 -8.2 °C -13.8 °C 1022.2 hPa WNW 10.9 km/h 22.2 km/h 64 % 0 mm
07:00 -8.2 °C -13.8 °C 1022.2 hPa NW 12.2 km/h 20.4 km/h 64 % 0 mm
07:04 -8.3 °C -14.3 °C 1022.2 hPa WSW 7.7 km/h 25.9 km/h 62 % 0 mm
07:06 -8.3 °C -13.9 °C 1022.2 hPa NNW 11.7 km/h 24.1 km/h 64 % 0 mm
07:11 -8.3 °C -13.7 °C 1022.2 hPa WNW 10.6 km/h 25.7 km/h 65 % 0 mm
07:12 -8.3 °C -13.7 °C 1022.2 hPa NNW 14 km/h 25.9 km/h 65 % 0 mm
07:17 -8.4 °C -14.2 °C 1022.2 hPa WSW 17.9 km/h 31.5 km/h 63 % 0 mm
07:21 -8.6 °C -14.3 °C 1022.2 hPa WNW 9.7 km/h 20.4 km/h 63 % 0 mm
07:26 -8.6 °C -13.9 °C 1022.6 hPa NW 11.3 km/h 19.3 km/h 65 % 0 mm
07:27 -8.6 °C -14 °C 1022.6 hPa NW 10.3 km/h 25.7 km/h 65 % 0 mm
07:31 -8.7 °C -14.4 °C 1022.6 hPa NW 12.4 km/h 27.8 km/h 63 % 0 mm
07:36 -8.7 °C -14.7 °C 1022.9 hPa NNW 13.7 km/h 29.6 km/h 62 % 0 mm
07:38 -8.7 °C -14.5 °C 1022.6 hPa NNW 11.3 km/h 20.4 km/h 63 % 0 mm
07:44 -8.8 °C -14.6 °C 1022.9 hPa WNW 9.2 km/h 31.5 km/h 63 % 0 mm
07:45 -8.8 °C -14.6 °C 1022.6 hPa WNW 9.7 km/h 22.2 km/h 63 % 0 mm
07:50 -8.8 °C -14.9 °C 1022.9 hPa NNE 8.5 km/h 24.1 km/h 61 % 0 mm
07:54 -8.8 °C -14.8 °C 1022.9 hPa NNW 7.9 km/h 14.8 km/h 62 % 0 mm
07:59 -8.8 °C -14.6 °C 1022.9 hPa NNW 10.5 km/h 25.9 km/h 63 % 0 mm
08:04 -8.8 °C -14.7 °C 1022.9 hPa NNW 14 km/h 20.4 km/h 62 % 0 mm
08:06 -8.8 °C -15 °C 1022.9 hPa NNW 11.3 km/h 27.4 km/h 61 % 0 mm
08:11 -8.8 °C -15 °C 1022.6 hPa NNW 8.7 km/h 17.7 km/h 61 % 0 mm
08:15 -8.9 °C -15.1 °C 1022.9 hPa NW 8.5 km/h 31.5 km/h 61 % 0 mm
08:20 -8.9 °C -14.8 °C 1022.9 hPa North 11.4 km/h 18.5 km/h 62 % 0 mm
08:22 -8.8 °C -15 °C 1022.9 hPa NW 10.1 km/h 18.5 km/h 61 % 0 mm
08:27 -8.9 °C -15.1 °C 1022.9 hPa North 8.7 km/h 14.8 km/h 61 % 0 mm
08:32 -8.9 °C -15.3 °C 1022.6 hPa NNE 9 km/h 14.8 km/h 60 % 0 mm
08:34 -9 °C -15.3 °C 1022.6 hPa NW 7.9 km/h 19.3 km/h 60 % 0 mm
08:39 -9.1 °C -15.4 °C 1022.9 hPa North 9 km/h 20.4 km/h 60 % 0 mm
08:44 -9.1 °C -15.4 °C 1022.6 hPa NNW 5.3 km/h 16.7 km/h 60 % 0 mm
08:45 -9.1 °C -15.4 °C 1022.9 hPa North 8.2 km/h 13 km/h 60 % 0 mm
08:50 -9.1 °C -15.2 °C 1022.9 hPa NW 9.2 km/h 20.4 km/h 61 % 0 mm
08:51 -9.1 °C -15.2 °C 1022.9 hPa North 9.7 km/h 17.7 km/h 61 % 0 mm
08:55 -9 °C -15.2 °C 1023.2 hPa NW 9 km/h 18.5 km/h 61 % 0 mm
08:56 -9 °C -15.2 °C 1023.2 hPa NW 10.3 km/h 18.5 km/h 61 % 0 mm
09:01 -8.8 °C -14.8 °C 1023.2 hPa NW 9.5 km/h 14.8 km/h 62 % 0 mm
09:02 -8.8 °C -14.7 °C 1023.6 hPa NW 8.5 km/h 16.7 km/h 62 % 0 mm
09:07 -8.7 °C -14.9 °C 1023.6 hPa NE 10.6 km/h 16.7 km/h 61 % 0 mm
09:08 -8.7 °C -14.9 °C 1023.6 hPa North 10.1 km/h 16.7 km/h 61 % 0 mm
09:13 -8.7 °C -15.1 °C 1023.2 hPa NNW 8.2 km/h 16.7 km/h 60 % 0 mm
09:18 -8.8 °C -15.3 °C 1023.2 hPa NNW 6.6 km/h 22.2 km/h 59 % 0 mm
09:19 -8.8 °C -15.3 °C 1023.2 hPa WSW 6.9 km/h 14.8 km/h 59 % 0 mm
09:24 -8.8 °C -15.4 °C 1023.6 hPa NW 5.6 km/h 11.1 km/h 59 % 0 mm
09:25 -8.8 °C -15.4 °C 1023.6 hPa NW 9.3 km/h 18.5 km/h 59 % 0 mm
09:30 -8.9 °C -15.3 °C 1023.6 hPa North 6.8 km/h 7.4 km/h 60 % 0 mm
09:32 -8.9 °C -15.3 °C 1023.6 hPa NNW 8.4 km/h 12.9 km/h 60 % 0 mm
09:34 -8.9 °C -15.3 °C 1023.9 hPa NW 5.6 km/h 11.3 km/h 60 % 0 mm
09:38 -8.8 °C -15.2 °C 1023.9 hPa North 6.4 km/h 16.7 km/h 60 % 0 mm
09:43 -8.8 °C -15.3 °C 1023.9 hPa NW 11.4 km/h 20.9 km/h 59 % 0 mm
09:48 -8.7 °C -15.7 °C 1023.9 hPa NNW 13.5 km/h 27.8 km/h 57 % 0 mm
09:51 -8.7 °C -15.7 °C 1024.3 hPa West 11.9 km/h 20.4 km/h 57 % 0 mm
09:55 -8.7 °C -15.7 °C 1024.3 hPa WNW 9 km/h 22.5 km/h 57 % 0 mm
09:58 -8.6 °C -15.6 °C 1024.6 hPa WNW 8.7 km/h 18.5 km/h 57 % 0 mm
10:02 -8.6 °C -15.8 °C 1024.9 hPa NNW 11.3 km/h 20.4 km/h 56 % 0 mm
10:07 -8.5 °C -15.7 °C 1024.9 hPa NW 6.3 km/h 13 km/h 56 % 0 mm
10:09 -8.4 °C -15.4 °C 1025.3 hPa NNW 6.9 km/h 13 km/h 57 % 0 mm
10:11 -8.4 °C -15.4 °C 1025.3 hPa WNW 4.8 km/h 16.1 km/h 57 % 0 mm
10:16 -8.3 °C -15.3 °C 1024.9 hPa NW 9.7 km/h 19.3 km/h 57 % 0 mm
10:20 -8.2 °C -15.2 °C 1024.9 hPa WNW 7.9 km/h 18.5 km/h 57 % 0 mm
10:21 -8.2 °C -15.2 °C 1024.9 hPa WNW 9.7 km/h 27.4 km/h 57 % 0 mm
10:26 -8.2 °C -15 °C 1024.6 hPa NW 8.5 km/h 19.3 km/h 58 % 0 mm
10:28 -8.2 °C -15 °C 1024.6 hPa NW 5.8 km/h 11.1 km/h 58 % 0 mm
10:33 -8 °C -14.8 °C 1024.6 hPa WNW 12.1 km/h 18.5 km/h 58 % 0 mm
10:35 -8 °C -15.3 °C 1024.6 hPa NNW 9.7 km/h 24.1 km/h 56 % 0 mm
10:40 -8.1 °C -15.1 °C 1024.3 hPa NNW 6.3 km/h 12.9 km/h 57 % 0 mm
10:45 -8 °C -15.1 °C 1023.9 hPa NNW 8 km/h 16.1 km/h 57 % 0 mm
10:46 -8 °C -15.1 °C 1023.9 hPa NNW 8 km/h 16.7 km/h 57 % 0 mm
10:48 -8 °C -15.4 °C 1023.9 hPa WNW 11.1 km/h 18.5 km/h 55 % 0 mm
10:53 -8 °C -15.7 °C 1024.3 hPa NW 6.9 km/h 16.7 km/h 54 % 0 mm
10:55 -8.1 °C -15.5 °C 1024.3 hPa WNW 11.1 km/h 18.5 km/h 55 % 0 mm
10:56 -8.1 °C -15.5 °C 1024.3 hPa NW 13.2 km/h 22.2 km/h 55 % 0 mm
11:01 -8.1 °C -15.5 °C 1023.9 hPa WNW 11.4 km/h 18.5 km/h 55 % 0 mm
11:04 -8.1 °C -15.3 °C 1023.9 hPa NW 5.5 km/h 16.7 km/h 56 % 0 mm
11:07 -8 °C -15.1 °C 1023.6 hPa NW 11.4 km/h 20.4 km/h 57 % 0 mm
11:11 -7.9 °C -15.7 °C 1023.6 hPa NNW 14 km/h 25.9 km/h 54 % 0 mm
11:16 -7.9 °C -15.7 °C 1023.6 hPa WNW 8.7 km/h 25.9 km/h 54 % 0 mm
11:20 -7.9 °C -15.4 °C 1023.9 hPa NW 12.7 km/h 22.2 km/h 55 % 0 mm
11:25 -7.9 °C -15.2 °C 1023.9 hPa NNW 11.7 km/h 18.5 km/h 56 % 0 mm
11:27 -7.9 °C -15.2 °C 1023.9 hPa NW 2.4 km/h 18.5 km/h 56 % 0 mm
11:32 -7.8 °C -15.1 °C 1023.9 hPa NW 5.8 km/h 16.7 km/h 56 % 0 mm
11:33 -7.8 °C -15.3 °C 1023.6 hPa NW 8.4 km/h 13 km/h 55 % 0 mm
11:38 -7.7 °C -15 °C 1023.2 hPa NNW 5.6 km/h 8 km/h 56 % 0 mm
11:43 -7.7 °C -15.2 °C 1023.2 hPa NNW 6.8 km/h 11.1 km/h 55 % 0 mm
11:48 -7.7 °C -15.4 °C 1022.9 hPa NNW 7.4 km/h 18.5 km/h 54 % 0 mm
11:49 -7.7 °C -15.2 °C 1022.9 hPa WNW 6 km/h 14.8 km/h 55 % 0 mm
11:50 -7.7 °C -15.2 °C 1023.2 hPa WNW 11.3 km/h 19.3 km/h 55 % 0 mm
11:54 -7.7 °C -15.2 °C 1023.2 hPa North 7.9 km/h 14.8 km/h 55 % 0 mm
11:59 -7.7 °C -15.4 °C 1022.6 hPa NNE 9.7 km/h 14.8 km/h 54 % 0 mm
12:04 -7.8 °C -15.8 °C 1022.9 hPa NNW 3.9 km/h 14.8 km/h 53 % 0 mm
12:07 -7.8 °C -15.3 °C 1022.9 hPa West 8.5 km/h 16.7 km/h 55 % 0 mm
12:09 -7.8 °C -15.5 °C 1022.9 hPa NW 5.5 km/h 16.7 km/h 54 % 0 mm
12:14 -7.8 °C -15.5 °C 1022.6 hPa NNW 6.1 km/h 11.1 km/h 54 % 0 mm
12:20 -7.8 °C -15.7 °C 1022.6 hPa NNW 8.2 km/h 14.8 km/h 53 % 0 mm
12:25 -7.7 °C -15.2 °C 1022.6 hPa North 6.1 km/h 14.8 km/h 55 % 0 mm
12:26 -7.7 °C -15.2 °C 1022.6 hPa North 4.3 km/h 9.3 km/h 55 % 0 mm
12:31 -7.7 °C -15.4 °C 1022.6 hPa West 6 km/h 18.5 km/h 54 % 0 mm
12:32 -7.6 °C -15.3 °C 1022.6 hPa WNW 6.9 km/h 9.3 km/h 54 % 0 mm
12:35 -7.6 °C -15.3 °C 1022.6 hPa WNW 1.6 km/h 9.3 km/h 54 % 0 mm
12:40 -7.5 °C -15.2 °C 1022.6 hPa WNW 6.3 km/h 18.5 km/h 54 % 0 mm
12:41 -7.4 °C -14.9 °C 1022.9 hPa SW 10.6 km/h 14.8 km/h 55 % 0 mm
12:46 -7.4 °C -15.1 °C 1022.9 hPa NNW 9.3 km/h 11.3 km/h 54 % 0 mm
12:47 -7.4 °C -15.3 °C 1022.9 hPa WNW 10.3 km/h 18.5 km/h 53 % 0 mm
12:51 -7.4 °C -15.4 °C 1022.9 hPa WNW 6.9 km/h 13 km/h 53 % 0 mm
12:56 -7.4 °C -15.6 °C 1022.9 hPa WNW 3.4 km/h 7.4 km/h 52 % 0 mm
12:58 -7.4 °C -15.6 °C 1022.6 hPa NW 8 km/h 11.1 km/h 52 % 0 mm
13:03 -7.4 °C -15.4 °C 1022.6 hPa WNW 7.1 km/h 11.1 km/h 53 % 0 mm
13:07 -7.4 °C -15.4 °C 1022.6 hPa NNW 11.9 km/h 14.8 km/h 53 % 0 mm
13:12 -7.7 °C -16.1 °C 1022.2 hPa NNW 8 km/h 13 km/h 51 % 0 mm
13:17 -7.8 °C -15.7 °C 1022.2 hPa NW 6.4 km/h 16.7 km/h 53 % 0 mm
13:18 -7.8 °C -15.7 °C 1022.2 hPa WNW 10.6 km/h 18.5 km/h 53 % 0 mm
13:20 -7.8 °C -15.7 °C 1022.2 hPa NW 8.5 km/h 16.7 km/h 53 % 0 mm
13:25 -7.8 °C -15.8 °C 1022.6 hPa NW 5 km/h 11.1 km/h 53 % 0 mm
13:28 -7.8 °C -15.6 °C 1022.6 hPa WNW 7.9 km/h 17.7 km/h 54 % 0 mm
13:31 -7.8 °C -15.8 °C 1022.6 hPa WNW 9 km/h 14.8 km/h 53 % 0 mm
13:36 -7.9 °C -15.8 °C 1022.9 hPa NW 7.1 km/h 13 km/h 53 % 0 mm
13:37 -7.9 °C -15.4 °C 1022.9 hPa WNW 7.6 km/h 14.5 km/h 55 % 0 mm
13:41 -7.9 °C -15.8 °C 1022.9 hPa NW 9 km/h 18.5 km/h 53 % 0 mm
13:46 -7.9 °C -15.8 °C 1023.2 hPa WNW 7.4 km/h 19.3 km/h 53 % 0 mm
13:51 -7.9 °C -15.6 °C 1023.2 hPa NW 9 km/h 18.5 km/h 54 % 0 mm
13:54 -7.9 °C -15.7 °C 1023.6 hPa NW 11.4 km/h 18.5 km/h 54 % 0 mm
13:59 -8 °C -15.7 °C 1023.2 hPa WNW 10.5 km/h 11.1 km/h 54 % 0 mm
14:03 -8 °C -16.2 °C 1022.9 hPa NW 11.1 km/h 14.8 km/h 52 % 0 mm
14:08 -8.1 °C -15.7 °C 1022.9 hPa NW 7.9 km/h 11.3 km/h 54 % 0 mm
14:13 -8.1 °C -15.7 °C 1023.2 hPa West 10.6 km/h 25.9 km/h 54 % 0 mm
14:14 -8.1 °C -15.7 °C 1023.2 hPa NNW 8.4 km/h 25.9 km/h 54 % 0 mm
14:19 -8.1 °C -15.5 °C 1023.9 hPa NNW 9 km/h 16.7 km/h 55 % 0 mm
14:21 -8.1 °C -15.5 °C 1023.9 hPa WNW 3.4 km/h 6.4 km/h 55 % 0 mm
14:23 -8.1 °C -15.5 °C 1023.9 hPa WSW 10.3 km/h 22.2 km/h 55 % 0 mm
14:28 -8.1 °C -15.8 °C 1023.9 hPa WNW 9.3 km/h 16.7 km/h 54 % 0 mm
14:31 -8.1 °C -15.8 °C 1023.9 hPa NNW 9.7 km/h 16.1 km/h 54 % 0 mm
14:36 -8.2 °C -15.8 °C 1024.3 hPa NW 13.8 km/h 22.2 km/h 54 % 0 mm
14:37 -8.2 °C -15.8 °C 1024.3 hPa WNW 4.5 km/h 11.3 km/h 54 % 0 mm
14:42 -8.3 °C -15.9 °C 1024.3 hPa NW 6.6 km/h 14.8 km/h 54 % 0 mm
14:43 -8.3 °C -15.9 °C 1024.3 hPa West 8.2 km/h 20.4 km/h 54 % 0 mm
14:48 -8.4 °C -15.8 °C 1023.9 hPa WNW 8.5 km/h 14.8 km/h 55 % 0 mm
14:53 -8.5 °C -15.9 °C 1023.9 hPa NW 11.3 km/h 18.5 km/h 55 % 0 mm
14:54 -8.5 °C -15.9 °C 1023.9 hPa WNW 9.3 km/h 18.5 km/h 55 % 0 mm
14:59 -8.6 °C -16.1 °C 1023.9 hPa WNW 9.2 km/h 22.2 km/h 55 % 0 mm
15:02 -8.7 °C -16.1 °C 1023.9 hPa West 10.3 km/h 22.2 km/h 55 % 0 mm
15:07 -8.8 °C -16 °C 1024.3 hPa NW 4.8 km/h 14.8 km/h 56 % 0 mm
15:12 -8.8 °C -15.8 °C 1023.9 hPa SW 10.1 km/h 18.5 km/h 57 % 0 mm
15:17 -8.9 °C -15.9 °C 1023.9 hPa NNW 11.1 km/h 20.4 km/h 57 % 0 mm
15:20 -8.9 °C -16.1 °C 1024.3 hPa NW 6.9 km/h 22.2 km/h 56 % 0 mm
15:23 -9 °C -16.2 °C 1024.3 hPa NNW 13.8 km/h 27.8 km/h 56 % 0 mm
15:28 -9.1 °C -16.2 °C 1024.3 hPa NW 8.7 km/h 18.5 km/h 56 % 0 mm
15:30 -9.1 °C -16.1 °C 1024.3 hPa West 11.7 km/h 22.5 km/h 57 % 0 mm
15:35 -9.2 °C -16.6 °C 1024.6 hPa WSW 14 km/h 20.4 km/h 55 % 0 mm
15:39 -9.2 °C -16.6 °C 1024.6 hPa NNW 11.3 km/h 18.5 km/h 55 % 0 mm
15:44 -9.3 °C -16.7 °C 1024.6 hPa WNW 12.2 km/h 20.4 km/h 55 % 0 mm
15:45 -9.3 °C -16.7 °C 1024.6 hPa NW 11.9 km/h 20.4 km/h 55 % 0 mm
15:50 -9.4 °C -16.6 °C 1024.6 hPa WNW 6 km/h 11.1 km/h 56 % 0 mm
15:55 -9.4 °C -16.8 °C 1024.6 hPa NW 13.5 km/h 16.1 km/h 55 % 0 mm
15:59 -9.5 °C -16.9 °C 1024.3 hPa North 4 km/h 18.5 km/h 55 % 0 mm
16:04 -9.6 °C -16.7 °C 1024.6 hPa WNW 9.5 km/h 16.1 km/h 56 % 0 mm
16:08 -9.7 °C -17.3 °C 1024.6 hPa West 9.8 km/h 20.4 km/h 54 % 0 mm
16:13 -9.7 °C -17.1 °C 1024.6 hPa WNW 7.7 km/h 20.4 km/h 55 % 0 mm
16:17 -9.7 °C -16.7 °C 1024.6 hPa NW 8.5 km/h 18.5 km/h 57 % 0 mm
16:22 -9.7 °C -16.9 °C 1024.6 hPa West 10.1 km/h 20.4 km/h 56 % 0 mm
16:27 -9.8 °C -16.7 °C 1024.6 hPa WNW 7.1 km/h 18.5 km/h 57 % 0 mm
16:29 -9.8 °C -16.6 °C 1024.6 hPa NW 8.9 km/h 13 km/h 58 % 0 mm
16:30 -9.8 °C -16.6 °C 1024.6 hPa NW 13 km/h 16.7 km/h 58 % 0 mm
16:35 -9.8 °C -16.8 °C 1024.6 hPa NNW 6.4 km/h 13 km/h 57 % 0 mm
16:40 -9.9 °C -16.9 °C 1024.6 hPa North 6.1 km/h 24.1 km/h 57 % 0 mm
16:45 -9.9 °C -16.7 °C 1024.6 hPa WNW 8.4 km/h 18.5 km/h 58 % 0 mm
16:46 -9.9 °C -16.7 °C 1024.6 hPa NW 4.5 km/h 11.1 km/h 58 % 0 mm
16:49 -10 °C -16.7 °C 1024.6 hPa WNW 5.5 km/h 16.7 km/h 58 % 0 mm
16:53 -10 °C -16.7 °C 1024.6 hPa West 10 km/h 18.5 km/h 58 % 0 mm
16:56 -10.1 °C -16.9 °C 1024.6 hPa NW 11.1 km/h 18.5 km/h 57 % 0 mm
17:01 -10.1 °C -16.8 °C 1024.6 hPa NNE 4.8 km/h 11.1 km/h 58 % 0 mm
17:03 -10.1 °C -16.8 °C 1024.6 hPa WNW 5.3 km/h 16.7 km/h 58 % 0 mm
17:08 -10.2 °C -16.7 °C 1024.6 hPa NNW 5.6 km/h 16.7 km/h 59 % 0 mm
17:10 -10.2 °C -16.7 °C 1024.9 hPa NNW 10.8 km/h 20.9 km/h 59 % 0 mm
17:15 -10.2 °C -16.9 °C 1024.6 hPa West 7.6 km/h 18.5 km/h 58 % 0 mm
17:17 -10.2 °C -16.9 °C 1024.9 hPa NNW 6.6 km/h 14.8 km/h 58 % 0 mm
17:22 -10.3 °C -17 °C 1024.9 hPa NNW 9.8 km/h 18.5 km/h 58 % 0 mm
17:27 -10.3 °C -17 °C 1024.9 hPa WNW 6 km/h 13 km/h 58 % 0 mm
17:30 -10.3 °C -16.8 °C 1024.9 hPa NW 9 km/h 16.1 km/h 59 % 0 mm
17:35 -10.3 °C -16.6 °C 1025.3 hPa NW 6 km/h 18.5 km/h 60 % 0 mm
17:40 -10.3 °C -16.6 °C 1024.9 hPa NNW 9.7 km/h 20.4 km/h 60 % 0 mm
17:41 -10.3 °C -16.6 °C 1024.9 hPa NNW 9.5 km/h 20.4 km/h 60 % 0 mm
17:46 -10.3 °C -16.8 °C 1025.3 hPa NW 4.3 km/h 11.1 km/h 59 % 0 mm
17:51 -10.3 °C -17 °C 1025.3 hPa NW 8.7 km/h 16.7 km/h 58 % 0 mm
17:53 -10.3 °C -17 °C 1024.9 hPa NW 18.2 km/h 20.9 km/h 58 % 0 mm
17:58 -10.4 °C -17.1 °C 1025.3 hPa WNW 8.5 km/h 18.5 km/h 58 % 0 mm
18:03 -10.4 °C -16.9 °C 1025.3 hPa WNW 11.1 km/h 13 km/h 59 % 0 mm
18:08 -10.4 °C -16.5 °C 1025.3 hPa NNW 8.5 km/h 13 km/h 61 % 0 mm
18:14 -10.4 °C -16.7 °C 1025.3 hPa NNW 9 km/h 18.5 km/h 60 % 0 mm
18:15 -10.4 °C -16.7 °C 1025.3 hPa North 7.2 km/h 12.9 km/h 60 % 0 mm
18:20 -10.4 °C -16.7 °C 1025.3 hPa West 10.5 km/h 20.4 km/h 60 % 0 mm
18:25 -10.5 °C -16.8 °C 1025.3 hPa NW 9.7 km/h 20.9 km/h 60 % 0 mm
18:27 -10.5 °C -16.8 °C 1025.3 hPa North 11.3 km/h 17.7 km/h 60 % 0 mm
18:32 -10.4 °C -16.5 °C 1025.3 hPa NW 12.9 km/h 22.2 km/h 61 % 0 mm
18:33 -10.5 °C -16.8 °C 1025.3 hPa North 9.5 km/h 18.5 km/h 60 % 0 mm
18:38 -10.5 °C -16.8 °C 1025.3 hPa WNW 8.9 km/h 18.5 km/h 60 % 0 mm
18:40 -10.5 °C -16.6 °C 1025.3 hPa NNW 8 km/h 19.3 km/h 61 % 0 mm
18:41 -10.5 °C -16.6 °C 1025.3 hPa NNW 7.1 km/h 11.1 km/h 61 % 0 mm
18:46 -10.5 °C -16.6 °C 1025.3 hPa NNW 4.8 km/h 16.1 km/h 61 % 0 mm
18:51 -10.5 °C -16.8 °C 1025.6 hPa WNW 12.2 km/h 20.9 km/h 60 % 0 mm
18:52 -10.5 °C -16.8 °C 1025.6 hPa NNW 11.4 km/h 18.5 km/h 60 % 0 mm
18:57 -10.5 °C -16.8 °C 1025.6 hPa NNW 8.7 km/h 18.5 km/h 60 % 0 mm
18:59 -10.6 °C -17.1 °C 1025.6 hPa NW 8.9 km/h 14.8 km/h 59 % 0 mm
19:04 -10.6 °C -16.8 °C 1025.6 hPa NNW 10.3 km/h 27.8 km/h 60 % 0 mm
19:09 -10.6 °C -17.1 °C 1025.6 hPa WNW 8 km/h 16.7 km/h 59 % 0 mm
19:15 -10.6 °C -16.8 °C 1025.6 hPa NW 5.1 km/h 18.5 km/h 60 % 0 mm
19:16 -10.6 °C -16.7 °C 1025.6 hPa NNW 11.4 km/h 14.8 km/h 61 % 0 mm
19:22 -10.6 °C -16.6 °C 1025.6 hPa NW 7.9 km/h 18.5 km/h 61 % 0 mm
19:25 -10.6 °C -16.6 °C 1025.6 hPa NW 4.8 km/h 7.4 km/h 61 % 0 mm
19:30 -10.6 °C -16.7 °C 1025.6 hPa NW 9.3 km/h 16.7 km/h 61 % 0 mm
19:33 -10.6 °C -16.4 °C 1025.6 hPa NNW 8.2 km/h 14.8 km/h 62 % 0 mm
19:34 -10.6 °C -16.4 °C 1025.6 hPa NW 3.7 km/h 14.8 km/h 62 % 0 mm
19:39 -10.6 °C -16.6 °C 1025.6 hPa West 9 km/h 14.8 km/h 61 % 0 mm
19:45 -10.6 °C -16.5 °C 1025.6 hPa NNW 8.9 km/h 18.5 km/h 62 % 0 mm
19:47 -10.6 °C -16.2 °C 1025.6 hPa NW 9.5 km/h 16.7 km/h 63 % 0 mm
19:52 -10.6 °C -16.3 °C 1025.6 hPa NW 10.9 km/h 20.9 km/h 63 % 0 mm
19:56 -10.6 °C -16.5 °C 1025.6 hPa WNW 7.1 km/h 17.7 km/h 62 % 0 mm
19:58 -10.6 °C -16.5 °C 1025.6 hPa NW 7.4 km/h 20.4 km/h 62 % 0 mm
20:02 -10.6 °C -16.5 °C 1025.6 hPa West 10.5 km/h 22.5 km/h 62 % 0 mm
20:07 -10.7 °C -16.7 °C 1025.6 hPa NNW 2.9 km/h 11.1 km/h 61 % 0 mm
20:12 -10.7 °C -16.6 °C 1025.6 hPa NW 8.5 km/h 18.5 km/h 62 % 0 mm
20:16 -10.7 °C -16.6 °C 1025.6 hPa North 8.4 km/h 14.8 km/h 62 % 0 mm
20:17 -10.7 °C -16.6 °C 1025.6 hPa WNW 7.7 km/h 18.5 km/h 62 % 0 mm
20:23 -10.7 °C -16.7 °C 1025.6 hPa NW 9.5 km/h 16.7 km/h 61 % 0 mm
20:25 -10.7 °C -16.6 °C 1025.6 hPa WNW 9 km/h 16.7 km/h 62 % 0 mm
20:30 -10.7 °C -16.6 °C 1025.6 hPa NW 5.5 km/h 12.9 km/h 62 % 0 mm
20:32 -10.7 °C -16.6 °C 1025.6 hPa WNW 6.1 km/h 11.1 km/h 62 % 0 mm
20:37 -10.8 °C -16.8 °C 1025.6 hPa WNW 5.5 km/h 16.7 km/h 61 % 0 mm
20:38 -10.8 °C -16.8 °C 1025.6 hPa NW 8.2 km/h 13 km/h 61 % 0 mm
20:43 -10.8 °C -16.9 °C 1025.6 hPa NW 12.4 km/h 22.2 km/h 61 % 0 mm
20:48 -10.8 °C -16.9 °C 1025.6 hPa NW 6.3 km/h 6.3 km/h 61 % 0 mm
20:52 -10.8 °C -16.7 °C 1025.6 hPa NW 8.9 km/h 16.7 km/h 62 % 0 mm
20:57 -10.9 °C -16.8 °C 1025.6 hPa NW 6.8 km/h 18.5 km/h 62 % 0 mm
21:02 -10.9 °C -17 °C 1025.6 hPa NW 9 km/h 18.5 km/h 61 % 0 mm
21:03 -10.9 °C -17 °C 1025.6 hPa WNW 9.5 km/h 18.5 km/h 61 % 0 mm
21:05 -10.9 °C -17 °C 1025.6 hPa NNW 9 km/h 13 km/h 61 % 0 mm
21:09 -10.9 °C -17 °C 1025.6 hPa NNW 10 km/h 16.1 km/h 61 % 0 mm
21:14 -10.9 °C -17 °C 1025.6 hPa WNW 6.1 km/h 16.7 km/h 61 % 0 mm
21:16 -10.9 °C -16.8 °C 1025.6 hPa West 8.4 km/h 16.1 km/h 62 % 0 mm
21:21 -11 °C -16.8 °C 1025.6 hPa WNW 11.4 km/h 20.4 km/h 62 % 0 mm
21:25 -11 °C -17.1 °C 1025.6 hPa NW 3.1 km/h 13 km/h 61 % 0 mm
21:26 -11 °C -17.1 °C 1025.6 hPa NNW 9 km/h 13 km/h 61 % 0 mm
21:30 -11 °C -16.8 °C 1025.6 hPa WNW 8.7 km/h 16.7 km/h 62 % 0 mm
21:31 -11 °C -16.8 °C 1026 hPa WNW 9.5 km/h 16.7 km/h 62 % 0 mm
21:36 -11.1 °C -16.7 °C 1025.6 hPa NNW 9 km/h 22.2 km/h 63 % 0 mm
21:37 -11.1 °C -16.9 °C 1025.6 hPa NNW 7.2 km/h 22.2 km/h 62 % 0 mm
21:42 -11.1 °C -16.6 °C 1026 hPa NNW 9.5 km/h 16.7 km/h 64 % 0 mm
21:47 -11.1 °C -16.8 °C 1025.6 hPa NW 6.3 km/h 11.1 km/h 63 % 0 mm
21:48 -11.1 °C -16.8 °C 1025.6 hPa NW 12.1 km/h 18.5 km/h 63 % 0 mm
21:50 -11.2 °C -17.2 °C 1025.6 hPa North 8.9 km/h 18.5 km/h 61 % 0 mm
21:53 -11.2 °C -17 °C 1025.6 hPa NW 9.5 km/h 14.8 km/h 62 % 0 mm
21:58 -11.2 °C -17 °C 1025.6 hPa NW 4.7 km/h 9.3 km/h 62 % 0 mm
22:00 -11.2 °C -16.8 °C 1025.6 hPa WNW 4.2 km/h 9.3 km/h 63 % 0 mm
22:05 -11.2 °C -16.9 °C 1025.6 hPa NW 5.5 km/h 14.8 km/h 63 % 0 mm
22:07 -11.2 °C -16.9 °C 1025.6 hPa WNW 7.9 km/h 25.9 km/h 63 % 0 mm
22:13 -11.2 °C -17.1 °C 1025.6 hPa WNW 11.4 km/h 18.5 km/h 62 % 0 mm
22:18 -11.2 °C -16.9 °C 1026 hPa NW 8.2 km/h 16.7 km/h 63 % 0 mm
22:22 -11.2 °C -16.5 °C 1026 hPa WNW 9.7 km/h 16.7 km/h 65 % 0 mm
22:27 -11.2 °C -16.5 °C 1026 hPa North 5.6 km/h 18.5 km/h 65 % 0 mm
22:32 -11.3 °C -16.6 °C 1026 hPa NNW 10.5 km/h 18.5 km/h 65 % 0 mm
22:33 -11.3 °C -16.6 °C 1026 hPa North 11.3 km/h 18.5 km/h 65 % 0 mm
22:34 -11.3 °C -16.7 °C 1026 hPa NNW 10.3 km/h 18.5 km/h 64 % 0 mm
22:39 -11.3 °C -16.6 °C 1026 hPa North 9.3 km/h 18.5 km/h 65 % 0 mm
22:44 -11.3 °C -16.8 °C 1026 hPa NNW 6.4 km/h 13 km/h 64 % 0 mm
22:48 -11.3 °C -16.6 °C 1026 hPa NNW 13.2 km/h 18.5 km/h 65 % 0 mm
22:53 -11.4 °C -17.1 °C 1026 hPa NW 9.3 km/h 18.5 km/h 63 % 0 mm
22:58 -11.4 °C -16.9 °C 1026 hPa NW 7.9 km/h 11.3 km/h 64 % 0 mm
23:03 -11.4 °C -16.9 °C 1026 hPa NNW 5.1 km/h 25.7 km/h 64 % 0 mm
23:08 -11.4 °C -16.7 °C 1026 hPa NW 9.7 km/h 22.5 km/h 65 % 0 mm
23:09 -11.4 °C -16.7 °C 1026 hPa NW 10.3 km/h 11.1 km/h 65 % 0 mm
23:14 -11.5 °C -16.9 °C 1026 hPa North 9.8 km/h 18.5 km/h 64 % 0 mm
23:17 -11.5 °C -16.8 °C 1026 hPa WNW 4.7 km/h 8 km/h 65 % 0 mm
23:22 -11.6 °C -16.7 °C 1026.3 hPa North 8.2 km/h 14.8 km/h 66 % 0 mm
23:23 -11.6 °C -16.7 °C 1026 hPa NW 6.4 km/h 14.8 km/h 66 % 0 mm
23:28 -11.6 °C -16.7 °C 1026 hPa North 6.1 km/h 11.3 km/h 66 % 0 mm
23:31 -11.6 °C -16.7 °C 1026.3 hPa NNW 11.9 km/h 20.4 km/h 66 % 0 mm
23:35 -11.6 °C -16.9 °C 1026 hPa NNW 8.9 km/h 14.8 km/h 65 % 0 mm
23:37 -11.6 °C -16.9 °C 1026 hPa NW 2.3 km/h 5.6 km/h 65 % 0 mm
23:40 -11.6 °C -16.9 °C 1026 hPa NW 7.2 km/h 11.1 km/h 65 % 0 mm
23:45 -11.7 °C -16.9 °C 1026 hPa NNW 9 km/h 16.7 km/h 65 % 0 mm
23:50 -11.7 °C -17 °C 1026 hPa NW 10 km/h 14.8 km/h 65 % 0 mm
23:52 -11.7 °C -17 °C 1026 hPa NW 16.6 km/h 24.1 km/h 65 % 0 mm
23:57 -11.7 °C -17 °C 1026 hPa NW 8.5 km/h 20.4 km/h 65 % 0 mm
23:58 -11.7 °C -17 °C 1026 hPa NNW 7.2 km/h 18.5 km/h 65 % 0 mm
Crab Meadow Weather
Compliments of Weather Underground - 3.5 mb

Script developed by  Jim McMurry - jmcmurry@mwt.net Adapted for the template by  Wim van der Kuil - Leuven-Template.eu

Weather Terms: Flood Warning (river flood)- A warning for specific communities or areas along a river where flooding is imminent or occurring. Flood warnings normally give specific crest forecasts.